ACT        NSW        VIC        QLD        SA        WA        TAS        NT        INFO        CALC            by VK5ZD

  Atmospheric Gas Attenuation - ITU Rec 676-11   --------------- db/100km ---------------
TAS Stations Date Time Temp RH % AH g/m3 Dew Point Wind Direction Speed kph Gust kph Barometer mB Rainfall Since 9am 24GHz 47GHz 76GHz 122GHz 134GHz 241GHz
Bushy Park 15 00:20 4.2 95 6.13 3.5 0 0 1013.1 0 14.7 24.6 34.2 89.4 76.0 258.8
Butlers Gorge 15 00:20 1.9 90 4.97 0.4 0 4 1013.1 0 12.3 23.3 30.4 79.2 62.4 210.5
Campania 15 00:20 5.8 98 7.02 5.5 6 7 1013.1 0.2 16.6 25.6 37.2 97.4 86.6 296.0
Cape Bruny Aws 15 00:20 7.4 88 7 5.5 11 15 1026.6 0.8 16.4 25.6 37.0 96.6 85.5 292.3
Cape Grim 15 00:20 4.7 78 5.2 1.2 28 30 1025.7 0 12.7 23.4 30.7 79.9 63.9 216.0
Cape Sorell 15 00:20 4.7 83 5.53 2 6 6 1025.7 0 13.4 23.9 32.1 83.5 68.2 231.4
Cressy 15 00:20 2.6 87 5.04 0.7 9 11 1013.1 0 12.4 23.2 30.4 79.2 62.7 211.9
Davey Gorge (Pws) 15 00:00 2.9 89 5.26 1.2 2 2 1013.1 0 12.9 23.5 31.2 81.3 65.4 221.4
Dennes Point 15 00:20 7.3 96 7.59 6.7 11 15 1013.1 1.6 17.7 26.1 38.9 101.9 92.8 317.9
Devonport Airport 15 00:20 2.7 82 4.78 -0.1 15 17 1025.8 0 11.8 23.2 29.8 77.4 59.9 201.8
Dunalley 15 00:20 7.8 86 7.02 5.6 13 13 1013.1 0 16.5 25.0 36.3 94.9 84.4 288.6
Fingal 15 00:20 5.2 92 6.34 4 13 19 1013.1 0 15.1 24.6 34.6 90.6 77.9 265.5
Flinders Island Airport 15 00:20 6.1 99 7.24 6 7 9 1023.2 0 17.0 26.3 38.4 100.6 90.1 308.2
Friendly Beaches 15 00:20 6.7 97 7.37 6.2 9 13 1025 1.8 17.3 26.4 38.8 101.5 91.3 312.6
Grove 15 00:20 5.5 97 6.82 5.1 0 0 1013.1 0.4 16.1 25.3 36.5 95.5 84.2 287.5
Hartz Mountains 15 00:20 1.6 99 5.36 1.5 17 20 1013.1 1 13.1 24.0 32.1 83.8 67.9 229.9
Hobart 15 00:20 6.8 90 6.89 5.3 6 7 1026.7 0 16.2 25.6 36.8 96.1 84.7 289.3
Hobart Airport 15 00:20 5.8 98 7.02 5.5 9 9 1026.4 0 16.6 26.1 37.8 98.8 87.6 299.3
Hobart Mountain Park Depot (Hcc) 15 00:00 5.3 96 6.66 4.7 9 9 1013.1 0.6 15.8 25.1 35.9 94.0 82.2 280.5
King Island Airport 15 00:20 10.6 72 7.03 5.8 20 20 1023.6 0.6 16.4 24.7 35.5 92.7 82.3 281.4
Kunanyi / Mount Wellington 15 00:20 -0.8 100 4.59 -0.8 1013.1 1.6 11.5 23.3 29.8 77.7 59.3 199.5
Larapuna (Eddystone Point) 15 00:20 8.6 93 7.99 7.5 39 44 1023.4 0.4 18.5 26.8 40.4 105.8 97.5 334.7
Launceston 15 00:20 5.8 82 5.88 2.9 7 9 1013.1 0 14.1 23.7 32.5 84.9 71.1 241.9
Launceston Airport 15 00:20 3.5 90 5.54 2 13 15 1025.5 0 13.5 24.2 32.6 84.9 69.4 235.4
Liawenee 15 00:20 -0.6 95 4.42 -1.3 7 9 1025.8 0 11.2 23.5 29.6 76.8 57.6 193.1
Low Head 15 00:20 6.5 82 6.15 3.7 22 24 1025 0 14.7 24.4 33.8 88.2 74.8 254.8
Low Rocky Point 15 00:20 3.8 86 5.4 1.7 17 19 1026.6 0 13.1 24.0 31.9 83.1 67.3 228.1
Luncheon Hill 15 00:20 3.1 79 4.73 -0.2 19 22 1013.1 0 11.7 22.6 29.0 75.4 58.3 196.3
Maatsuyker Island 15 00:20 7.5 90 7.21 6 6 9 1013.1 0 16.9 25.4 37.2 97.4 87.3 298.7
Macquarie Island 15 00:20 1.9 88 4.86 0.1 17 19 1023.3 0.8 12.0 23.5 30.3 78.9 61.5 207.2
Maria Island 15 00:20 8 91 7.53 6.7 26 30 1025.5 2 17.6 26.3 38.8 101.6 92.1 315.3
Mount Read 15 00:20 0 59 2.86 -7.1 0 0 1024.7 0.4 7.8 20.8 23.2 59.6 36.7 119.8
Ouse 15 00:20 5 92 6.26 3.8 0 0 1026.8 0 14.9 25.1 35.0 91.3 77.9 265.4
Pws B 14 23:00 7.4 87 6.92 5.4 6 11 1013.1 0 16.3 25.0 36.0 94.3 83.5 285.3
Pws C 14 23:30 3.7 84 5.24 1.3 4 6 1013.1 0 12.8 23.2 30.8 80.2 64.5 218.3
Scotts Peak 15 00:20 2.8 96 5.64 2.2 9 11 1013.1 0.2 13.7 24.1 32.8 85.5 70.7 239.8
Scottsdale 15 00:20 4 83 5.28 1.4 9 11 1024.3 0 12.9 23.6 31.3 81.4 65.4 221.4
Sheffield 15 00:20 -0.1 95 4.58 -0.8 0 0 1027.5 0 11.5 23.7 30.1 78.2 59.5 199.8
Smithton 15 00:20 5.3 73 5.06 0.9 13 13 1025.5 0 12.4 23.0 29.9 77.8 61.5 208.0
St Helens 15 00:20 6.8 86 6.58 4.6 7 9 1024.4 0.6 15.6 25.0 35.4 92.4 80.3 273.9
Strahan 15 00:20 1.9 87 4.81 0 7 9 1026.1 0.2 11.9 23.5 30.2 78.6 60.9 205.3
Swan Island 15 00:20 8.1 82 6.83 5.2 22 28 1023.7 0 16.0 25.0 35.8 93.6 82.2 281.0
Tasman Island 15 00:20 6.9 86 6.62 4.7 11 17 1026 0 15.6 25.1 35.6 92.9 80.8 275.9
Tfs A 15 00:00 3.3 77 4.68 -0.3 9 11 1013.1 0 11.6 22.4 28.7 74.7 57.5 193.5
Tfs D 15 00:00 5.1 99 6.78 4.9 0 0 1013.1 1.2 16.1 25.4 36.5 95.6 84.0 287.0
Tunnack 15 00:20 3.6 98 6.07 3.3 7 9 1026.1 0 14.6 25.1 34.8 90.7 76.7 260.7
Warra 15 00:20 3.5 97 5.97 3.1 0 0 1013.1 0 14.4 24.5 33.8 88.4 74.5 253.4
Wynyard 15 00:20 1.3 90 4.77 -0.2 11 11 1025.6 0 11.9 23.6 30.3 78.7 60.9 204.9

Last Refresh: 15-Jun-2024 00:03:59

Bureau of Meteorology